createdAt,value
2023-04-14T00:02:12.406Z,11.47
2023-04-14T00:04:39.053Z,11.56
2023-04-14T00:07:05.747Z,11.53
2023-04-14T00:09:32.524Z,11.53
2023-04-14T00:11:59.077Z,11.49
2023-04-14T00:14:25.676Z,11.14
2023-04-14T00:16:52.329Z,11.27
2023-04-14T00:19:18.952Z,11.31
2023-04-14T00:21:45.526Z,11.35
2023-04-14T00:24:12.059Z,11.25
2023-04-14T00:26:38.714Z,11.32
2023-04-14T00:29:05.286Z,11.28
2023-04-14T00:31:31.980Z,11.12
2023-04-14T00:34:00.305Z,10.97
2023-04-14T00:36:26.975Z,10.88
2023-04-14T00:38:53.584Z,10.99
2023-04-14T00:41:20.113Z,10.91
2023-04-14T00:43:46.696Z,10.80
2023-04-14T00:46:17.183Z,10.79
2023-04-14T00:48:44.347Z,10.85
2023-04-14T00:51:11.716Z,10.89
2023-04-14T00:53:40.152Z,11.04
2023-04-14T00:56:08.084Z,11.12
2023-04-14T00:58:35.375Z,11.31
2023-04-14T01:01:02.150Z,11.11
2023-04-14T01:03:29.052Z,11.13
2023-04-14T01:05:57.610Z,10.95
2023-04-14T01:08:24.939Z,11.17
2023-04-14T01:11:17.119Z,11.08
2023-04-14T01:14:11.774Z,11.04
2023-04-14T01:16:45.292Z,11.16
2023-04-14T01:19:24.167Z,11.13
2023-04-14T01:21:56.661Z,11.35
2023-04-14T01:24:37.720Z,11.31
2023-04-14T01:27:31.764Z,11.26
2023-04-14T01:30:35.393Z,11.44
2023-04-14T01:33:06.958Z,11.60
2023-04-14T01:35:49.522Z,11.64
2023-04-14T01:38:23.722Z,11.62
2023-04-14T01:40:57.309Z,11.61
2023-04-14T01:43:30.625Z,11.52
2023-04-14T01:46:00.957Z,11.43
2023-04-14T01:48:29.068Z,11.53
2023-04-14T01:50:56.534Z,11.66
2023-04-14T01:53:25.796Z,11.79
2023-04-14T01:55:55.607Z,11.81
2023-04-14T01:58:23.652Z,11.81
2023-04-14T02:00:52.137Z,11.81
2023-04-14T02:03:21.454Z,11.83
2023-04-14T02:05:51.250Z,11.88
2023-04-14T02:08:21.169Z,11.96
2023-04-14T02:10:50.256Z,11.99
2023-04-14T02:13:19.655Z,11.92
2023-04-14T02:15:48.685Z,11.69
2023-04-14T02:18:16.390Z,11.82
2023-04-14T02:20:46.866Z,11.88
2023-04-14T02:23:14.091Z,11.80
2023-04-14T02:26:18.557Z,11.81
2023-04-14T02:29:02.794Z,11.82
2023-04-14T02:31:33.598Z,11.83
2023-04-14T02:34:03.678Z,11.83
2023-04-14T02:36:53.465Z,11.82
2023-04-14T02:39:26.024Z,11.79
2023-04-14T02:41:58.657Z,11.56
2023-04-14T02:44:29.040Z,11.43
2023-04-14T02:47:09.474Z,11.59
2023-04-14T02:49:43.789Z,11.50
2023-04-14T02:52:12.566Z,11.48
2023-04-14T02:54:41.758Z,11.45
2023-04-14T02:57:09.220Z,11.15
2023-04-14T02:59:40.068Z,11.22
2023-04-14T03:02:10.433Z,11.27
2023-04-14T03:04:41.982Z,11.29
2023-04-14T03:07:19.260Z,11.23
2023-04-14T03:09:49.466Z,11.22
2023-04-14T03:12:18.929Z,11.37
2023-04-14T03:14:47.621Z,11.32
2023-04-14T03:17:15.072Z,11.25
2023-04-14T03:19:42.789Z,11.23
2023-04-14T03:22:11.141Z,11.18
2023-04-14T03:24:38.914Z,11.16
2023-04-14T03:27:15.278Z,11.16
2023-04-14T03:29:46.816Z,11.22
2023-04-14T03:32:15.277Z,11.20
2023-04-14T03:34:42.959Z,11.22
2023-04-14T03:37:11.271Z,11.17
2023-04-14T03:39:39.173Z,11.12
2023-04-14T03:42:13.741Z,11.29
2023-04-14T03:44:46.072Z,11.23
2023-04-14T03:47:14.423Z,11.23
2023-04-14T03:49:46.766Z,11.33
2023-04-14T03:52:16.034Z,11.42
2023-04-14T03:54:45.451Z,11.28
2023-04-14T03:57:17.482Z,11.42
2023-04-14T03:59:48.344Z,11.60
2023-04-14T04:02:16.059Z,11.67
2023-04-14T04:04:44.095Z,11.67
2023-04-14T04:07:15.548Z,11.72
2023-04-14T04:09:43.585Z,11.80
2023-04-14T04:12:13.741Z,11.77
2023-04-14T04:14:40.607Z,11.65
2023-04-14T04:17:09.401Z,11.72
2023-04-14T04:19:38.591Z,11.63
2023-04-14T04:22:07.880Z,11.39
2023-04-14T04:24:38.362Z,11.46
2023-04-14T04:27:20.339Z,11.49
2023-04-14T04:29:52.262Z,11.50
2023-04-14T04:32:20.920Z,11.45
2023-04-14T04:34:49.431Z,11.25
2023-04-14T04:37:19.351Z,11.21
2023-04-14T04:39:46.071Z,11.02
2023-04-14T04:42:12.845Z,11.34
2023-04-14T04:44:39.424Z,11.38
2023-04-14T04:47:06.582Z,11.49
2023-04-14T04:49:33.157Z,11.57
2023-04-14T04:52:03.199Z,11.52
2023-04-14T04:54:29.789Z,11.46
2023-04-14T04:56:57.564Z,11.62
2023-04-14T04:59:24.455Z,11.62
2023-04-14T05:01:51.254Z,11.34
2023-04-14T05:04:18.125Z,11.58
2023-04-14T05:06:44.711Z,11.56
2023-04-14T05:09:11.263Z,11.56
2023-04-14T05:11:37.844Z,11.45
2023-04-14T05:14:04.457Z,11.54
2023-04-14T05:16:31.538Z,11.63
2023-04-14T05:18:58.351Z,11.49
2023-04-14T05:21:25.012Z,11.56
2023-04-14T05:23:51.596Z,11.70
2023-04-14T05:28:47.619Z,11.73
2023-04-14T05:31:14.543Z,11.26
2023-04-14T05:33:41.138Z,11.61
2023-04-14T05:36:07.855Z,11.75
2023-04-14T05:38:38.318Z,11.80
2023-04-14T05:41:04.895Z,11.76
2023-04-14T05:43:31.414Z,11.71
2023-04-14T05:45:58.558Z,11.63
2023-04-14T05:48:27.979Z,11.63
2023-04-14T05:50:54.802Z,11.82
2023-04-14T05:53:21.542Z,11.94
2023-04-14T05:55:48.750Z,11.84
2023-04-14T05:58:15.349Z,11.95
2023-04-14T06:00:41.855Z,11.99
2023-04-14T06:03:08.693Z,11.95
2023-04-14T06:05:35.593Z,11.65
2023-04-14T06:08:02.129Z,11.83
2023-04-14T06:10:28.789Z,11.91
2023-04-14T06:12:56.020Z,11.69
2023-04-14T06:15:22.710Z,11.82
2023-04-14T06:17:49.302Z,11.72
2023-04-14T06:20:15.866Z,11.89
2023-04-14T06:22:43.271Z,11.66
2023-04-14T06:25:10.981Z,11.79
2023-04-14T06:27:37.542Z,11.70
2023-04-14T06:30:06.210Z,11.88
2023-04-14T06:32:32.983Z,11.82
2023-04-14T06:34:59.724Z,11.53
2023-04-14T06:37:26.275Z,11.80
2023-04-14T06:39:52.823Z,11.37
2023-04-14T06:42:19.323Z,11.61
2023-04-14T06:44:46.150Z,11.88
2023-04-14T06:47:18.015Z,11.99
2023-04-14T06:49:44.651Z,12.16
2023-04-14T06:52:11.234Z,12.09
2023-04-14T06:54:37.883Z,12.07
2023-04-14T06:57:04.749Z,12.16
2023-04-14T06:59:31.342Z,11.86
2023-04-14T07:01:58.686Z,11.81
2023-04-14T07:04:25.800Z,12.08
2023-04-14T07:06:52.389Z,12.24
2023-04-14T07:09:19.381Z,12.38
2023-04-14T07:11:46.466Z,12.21
2023-04-14T07:14:13.057Z,12.24
2023-04-14T07:16:39.561Z,12.21
2023-04-14T07:19:06.177Z,12.29
2023-04-14T07:21:32.745Z,12.16
2023-04-14T07:23:59.499Z,12.30
2023-04-14T07:26:26.559Z,12.52
2023-04-14T07:28:53.201Z,12.46
2023-04-14T07:31:19.804Z,12.31
2023-04-14T07:33:46.387Z,12.26
2023-04-14T07:36:12.966Z,12.33
2023-04-14T07:38:39.570Z,12.21
2023-04-14T07:41:07.055Z,12.07
2023-04-14T07:43:37.194Z,12.15
2023-04-14T07:46:08.080Z,12.02
2023-04-14T07:48:36.323Z,12.22
2023-04-14T07:51:04.684Z,12.45
2023-04-14T07:53:32.287Z,12.39
2023-04-14T07:55:59.533Z,12.35
2023-04-14T07:58:27.787Z,12.42
2023-04-14T08:00:55.676Z,12.36
2023-04-14T08:03:22.528Z,12.47
2023-04-14T08:05:49.356Z,12.67
2023-04-14T08:08:16.030Z,12.57
2023-04-14T08:10:42.763Z,12.51
2023-04-14T08:13:09.861Z,12.71
2023-04-14T08:15:36.717Z,12.40
2023-04-14T08:18:03.405Z,12.46
2023-04-14T08:20:29.968Z,12.58
2023-04-14T08:22:57.196Z,12.75
2023-04-14T08:25:24.033Z,12.53
2023-04-14T08:27:50.652Z,12.31
2023-04-14T08:30:17.221Z,12.37
2023-04-14T08:32:43.903Z,12.77
2023-04-14T08:35:41.016Z,12.90
2023-04-14T08:37:57.152Z,13.03
2023-04-14T08:40:30.709Z,12.66
2023-04-14T08:42:57.299Z,12.76
2023-04-14T08:45:24.038Z,12.48
2023-04-14T08:47:55.064Z,12.73
2023-04-14T08:50:25.475Z,12.85
2023-04-14T08:52:56.241Z,12.67
2023-04-14T08:55:24.484Z,12.93
2023-04-14T08:57:51.529Z,13.30
2023-04-14T09:00:19.447Z,13.34
2023-04-14T09:02:46.936Z,13.11
2023-04-14T09:05:14.319Z,12.89
2023-04-14T09:07:42.688Z,12.99
2023-04-14T09:10:11.832Z,12.92
2023-04-14T09:12:42.196Z,12.94
2023-04-14T09:15:09.494Z,13.08
2023-04-14T09:17:36.742Z,13.18
2023-04-14T09:20:36.396Z,12.57
2023-04-14T09:22:50.808Z,13.14
2023-04-14T09:25:19.699Z,13.05
2023-04-14T09:27:47.875Z,13.23
2023-04-14T09:30:17.508Z,13.44
2023-04-14T09:32:44.968Z,13.04
2023-04-14T09:35:14.143Z,12.81
2023-04-14T09:37:46.482Z,12.71
2023-04-14T09:40:29.010Z,12.92
2023-04-14T09:42:56.801Z,13.34
2023-04-14T09:45:40.852Z,13.29
2023-04-14T09:48:08.686Z,13.31
2023-04-14T09:50:57.486Z,13.40
2023-04-14T09:53:29.547Z,13.23
2023-04-14T09:55:57.690Z,13.51
2023-04-14T09:58:26.827Z,13.78
2023-04-14T10:00:55.208Z,13.61
2023-04-14T10:03:34.266Z,13.34
2023-04-14T10:06:01.578Z,13.49
2023-04-14T10:08:38.922Z,13.66
2023-04-14T10:11:30.061Z,13.66
2023-04-14T10:14:02.376Z,13.25
2023-04-14T10:16:29.365Z,13.57
2023-04-14T10:18:59.385Z,13.85
2023-04-14T10:21:27.745Z,13.52
2023-04-14T10:23:56.935Z,13.46
2023-04-14T10:26:23.513Z,13.59
2023-04-14T10:28:52.825Z,13.86
2023-04-14T10:31:32.136Z,14.08
2023-04-14T10:33:58.932Z,13.52
2023-04-14T10:36:27.841Z,14.37
2023-04-14T10:39:03.103Z,14.41
2023-04-14T10:41:43.033Z,14.13
2023-04-14T10:44:26.927Z,13.85
2023-04-14T10:46:56.174Z,14.36
2023-04-14T10:49:30.927Z,14.77
2023-04-14T10:52:05.026Z,14.24
2023-04-14T10:54:54.286Z,14.47
2023-04-14T10:57:25.626Z,14.71
2023-04-14T10:59:59.655Z,14.94
2023-04-14T11:02:31.028Z,15.20
2023-04-14T11:05:05.242Z,15.07
2023-04-14T11:07:38.499Z,15.52
2023-04-14T11:10:17.885Z,15.53
2023-04-14T11:12:45.831Z,15.75
2023-04-14T11:15:12.516Z,15.85
2023-04-14T11:17:40.313Z,15.04
2023-04-14T11:20:23.448Z,15.66
2023-04-14T11:22:52.778Z,15.66
2023-04-14T11:25:23.944Z,15.89
2023-04-14T11:27:52.018Z,15.98
2023-04-14T11:30:20.274Z,16.12
2023-04-14T11:32:52.077Z,16.42
2023-04-14T11:35:20.236Z,16.61
2023-04-14T11:37:47.370Z,17.33
2023-04-14T11:40:15.505Z,17.41
2023-04-14T11:42:58.611Z,17.07
2023-04-14T11:45:31.706Z,17.42
2023-04-14T11:48:03.207Z,16.52
2023-04-14T11:50:31.747Z,16.56
2023-04-14T11:53:02.956Z,18.05
2023-04-14T11:55:29.963Z,17.90
2023-04-14T11:57:57.789Z,19.41
2023-04-14T12:00:24.864Z,20.70
2023-04-14T12:02:51.666Z,19.04
2023-04-14T12:05:25.345Z,17.92
2023-04-14T12:07:59.135Z,17.01
2023-04-14T12:10:26.929Z,16.66
2023-04-14T12:13:04.624Z,16.18
2023-04-14T12:15:39.309Z,16.03
2023-04-14T12:18:11.519Z,16.22
2023-04-14T12:21:01.507Z,16.22
2023-04-14T12:23:28.288Z,15.98
2023-04-14T12:25:54.886Z,15.73
2023-04-14T12:28:25.669Z,16.06
2023-04-14T12:30:52.852Z,15.82
2023-04-14T12:33:22.913Z,15.51
2023-04-14T12:35:52.532Z,14.47
2023-04-14T12:38:19.476Z,14.88
2023-04-14T12:40:47.896Z,14.98
2023-04-14T12:43:16.589Z,14.96
2023-04-14T12:45:48.344Z,15.63
2023-04-14T12:48:18.295Z,14.94
2023-04-14T12:50:45.038Z,15.95
2023-04-14T12:53:28.831Z,18.03
2023-04-14T12:56:13.122Z,18.07
2023-04-14T12:58:49.454Z,17.56
2023-04-14T13:01:18.103Z,17.48
2023-04-14T13:03:50.856Z,16.96
2023-04-14T13:06:24.898Z,16.45
2023-04-14T13:08:52.414Z,16.41
2023-04-14T13:11:20.812Z,16.18
2023-04-14T13:13:47.680Z,15.45
2023-04-14T13:16:17.735Z,14.66
2023-04-14T13:18:46.630Z,14.35
2023-04-14T13:21:13.330Z,13.49
2023-04-14T13:23:40.028Z,12.82
2023-04-14T13:26:06.617Z,13.19
2023-04-14T13:28:33.187Z,13.38
2023-04-14T13:30:59.767Z,13.66
2023-04-14T13:33:27.487Z,13.84
2023-04-14T13:35:55.614Z,14.12
2023-04-14T13:38:22.575Z,14.25
2023-04-14T13:40:49.291Z,14.27
2023-04-14T13:43:21.699Z,14.07
2023-04-14T13:45:48.281Z,13.99
2023-04-14T13:48:15.040Z,14.42
2023-04-14T13:50:41.887Z,14.32
2023-04-14T13:53:08.852Z,14.19
2023-04-14T13:55:36.184Z,14.31
2023-04-14T13:58:03.065Z,14.44
2023-04-14T14:00:29.663Z,14.84
2023-04-14T14:02:56.582Z,15.61
2023-04-14T14:05:23.418Z,16.25
2023-04-14T14:07:50.261Z,16.64
2023-04-14T14:10:16.820Z,16.94
2023-04-14T14:12:43.437Z,16.39
2023-04-14T14:15:10.506Z,17.03
2023-04-14T14:17:37.499Z,17.56
2023-04-14T14:20:04.403Z,17.93
2023-04-14T14:22:31.111Z,18.19
2023-04-14T14:25:10.694Z,18.34
2023-04-14T14:27:42.222Z,18.94
2023-04-14T14:30:09.297Z,19.60
2023-04-14T14:32:35.985Z,20.27
2023-04-14T14:35:04.225Z,20.63
2023-04-14T14:37:30.837Z,20.96
2023-04-14T14:39:57.881Z,20.39
2023-04-14T14:42:24.435Z,20.05
2023-04-14T14:44:51.281Z,19.72
2023-04-14T14:47:17.851Z,19.15
2023-04-14T14:49:56.700Z,19.63
2023-04-14T14:52:29.842Z,20.30
2023-04-14T14:54:56.404Z,20.38
2023-04-14T14:57:23.159Z,21.43
2023-04-14T14:59:49.806Z,23.66
2023-04-14T15:02:16.954Z,25.33
2023-04-14T15:04:43.891Z,24.67
2023-04-14T15:07:10.589Z,24.42
2023-04-14T15:09:37.244Z,24.14
2023-04-14T15:12:03.898Z,22.38
2023-04-14T15:14:30.493Z,21.69
2023-04-14T15:16:57.178Z,21.80
2023-04-14T15:19:24.101Z,21.23
2023-04-14T15:21:54.010Z,21.15
2023-04-14T15:24:20.603Z,20.25
2023-04-14T15:26:47.207Z,19.77
2023-04-14T15:29:13.780Z,20.51
2023-04-14T15:31:40.329Z,20.98
2023-04-14T15:34:07.655Z,20.41
2023-04-14T15:36:34.351Z,20.02
2023-04-14T15:39:00.930Z,20.03
2023-04-14T15:41:27.543Z,20.21
2023-04-14T15:43:54.074Z,20.08
2023-04-14T15:46:20.774Z,19.32
2023-04-14T15:48:47.325Z,18.40
2023-04-14T15:51:13.918Z,17.88
2023-04-14T15:53:40.446Z,17.29
2023-04-14T15:56:07.014Z,17.27
2023-04-14T15:58:34.151Z,16.68
2023-04-14T16:01:00.725Z,17.65
2023-04-14T16:03:27.585Z,17.51
2023-04-14T16:06:06.723Z,17.36
2023-04-14T16:08:33.616Z,17.18
2023-04-14T16:11:00.245Z,16.68
2023-04-14T16:13:27.381Z,17.06
2023-04-14T16:15:54.041Z,16.57
2023-04-14T16:18:20.699Z,16.31
2023-04-14T16:20:49.974Z,16.66
2023-04-14T16:23:16.616Z,16.94
2023-04-14T16:25:48.370Z,16.96
2023-04-14T16:28:14.940Z,17.05
2023-04-14T16:30:42.655Z,17.14
2023-04-14T16:33:09.388Z,17.21
2023-04-14T16:35:36.188Z,16.76
2023-04-14T16:38:03.034Z,16.93
2023-04-14T16:40:29.600Z,15.54
2023-04-14T16:42:56.167Z,16.56
2023-04-14T16:45:22.674Z,16.48
2023-04-14T16:47:49.192Z,16.65
2023-04-14T16:50:15.821Z,16.52
2023-04-14T16:52:42.399Z,16.62
2023-04-14T16:55:09.832Z,16.53
2023-04-14T16:57:36.366Z,15.88
2023-04-14T17:00:03.556Z,16.20
2023-04-14T17:02:30.262Z,16.41
2023-04-14T17:04:58.179Z,16.43
2023-04-14T17:07:24.802Z,16.62
2023-04-14T17:09:51.374Z,16.59
2023-04-14T17:12:18.307Z,16.57
2023-04-14T17:14:45.082Z,16.52
2023-04-14T17:17:11.664Z,16.40
2023-04-14T17:19:38.161Z,15.64
2023-04-14T17:22:04.696Z,15.80
2023-04-14T17:24:31.382Z,15.48
2023-04-14T17:26:57.976Z,15.72
2023-04-14T17:29:25.528Z,15.50
2023-04-14T17:31:52.186Z,15.40
2023-04-14T17:34:20.581Z,15.35
2023-04-14T17:36:47.598Z,15.39
2023-04-14T17:39:14.313Z,14.92
2023-04-14T17:41:40.946Z,15.02
2023-04-14T17:44:07.499Z,14.60
2023-04-14T17:46:34.492Z,14.78
2023-04-14T17:49:04.366Z,14.49
2023-04-14T17:51:31.888Z,14.45
2023-04-14T17:53:58.975Z,14.64
2023-04-14T17:56:25.910Z,14.24
2023-04-14T17:58:52.869Z,14.42
2023-04-14T18:01:19.750Z,14.00
2023-04-14T18:03:46.493Z,13.54
2023-04-14T18:06:13.410Z,13.82
2023-04-14T18:08:39.989Z,14.04
2023-04-14T18:11:07.047Z,14.20
2023-04-14T18:13:34.614Z,14.14
2023-04-14T18:16:01.756Z,14.03
2023-04-14T18:18:28.468Z,14.01
2023-04-14T18:20:55.567Z,13.93
2023-04-14T18:23:22.229Z,13.45
2023-04-14T18:28:28.081Z,13.25
2023-04-14T18:30:59.373Z,13.63
2023-04-14T18:33:28.404Z,13.40
2023-04-14T18:36:00.532Z,13.38
2023-04-14T18:38:28.494Z,13.72
2023-04-14T18:41:02.226Z,13.61
2023-04-14T18:43:28.808Z,13.52
2023-04-14T18:45:55.632Z,13.66
2023-04-14T18:48:22.233Z,13.72
2023-04-14T18:51:01.673Z,13.15
2023-04-14T18:53:28.629Z,13.31
2023-04-14T18:55:55.273Z,13.56
2023-04-14T18:58:21.891Z,13.73
2023-04-14T19:00:48.439Z,13.61
2023-04-14T19:03:15.259Z,13.48
2023-04-14T19:05:42.235Z,13.55
2023-04-14T19:08:08.829Z,13.49
2023-04-14T19:10:36.268Z,13.62
2023-04-14T19:13:02.964Z,13.67
2023-04-14T19:15:29.522Z,13.67
2023-04-14T19:17:56.248Z,13.65
2023-04-14T19:20:24.150Z,13.86
2023-04-14T19:22:50.868Z,13.76
2023-04-14T19:25:17.579Z,13.75
2023-04-14T19:27:44.296Z,13.87
2023-04-14T19:30:12.038Z,13.90
2023-04-14T19:32:38.707Z,13.54
2023-04-14T19:35:07.440Z,13.62
2023-04-14T19:37:34.958Z,13.69
2023-04-14T19:40:02.431Z,13.76
2023-04-14T19:42:29.024Z,13.78
2023-04-14T19:44:56.029Z,13.82
2023-04-14T19:47:24.040Z,13.75
2023-04-14T19:49:51.367Z,13.81
2023-04-14T19:52:19.038Z,13.79
2023-04-14T19:54:45.745Z,13.89
2023-04-14T19:57:12.316Z,13.99
2023-04-14T19:59:39.895Z,14.05
2023-04-14T20:02:10.507Z,14.02
2023-04-14T20:04:37.865Z,14.08
2023-04-14T20:07:05.067Z,13.98
2023-04-14T20:09:31.845Z,14.00
2023-04-14T20:12:10.368Z,14.00
2023-04-14T20:14:36.919Z,13.99
2023-04-14T20:17:03.703Z,14.01
2023-04-14T20:19:30.990Z,14.07
2023-04-14T20:21:57.760Z,14.01
2023-04-14T20:24:24.314Z,13.98
2023-04-14T20:26:50.846Z,14.02
2023-04-14T20:29:17.494Z,13.99
2023-04-14T20:31:44.257Z,13.93
2023-04-14T20:34:11.999Z,13.94
2023-04-14T20:36:38.723Z,13.88
2023-04-14T20:39:06.215Z,13.78
2023-04-14T20:41:33.924Z,13.88
2023-04-14T20:44:01.193Z,13.79
2023-04-14T20:46:27.902Z,13.96
2023-04-14T20:48:54.656Z,13.96
2023-04-14T20:51:21.273Z,13.97
2023-04-14T20:53:48.496Z,14.02
2023-04-14T20:56:15.072Z,14.01
2023-04-14T20:58:41.579Z,13.78
2023-04-14T21:01:09.367Z,13.57
2023-04-14T21:03:36.222Z,13.79
2023-04-14T21:06:02.984Z,13.87
2023-04-14T21:08:29.766Z,13.60
2023-04-14T21:11:15.595Z,13.53
2023-04-14T21:15:31.268Z,13.54
2023-04-14T21:16:30.338Z,13.63
2023-04-14T21:18:57.369Z,13.42
2023-04-14T21:21:23.909Z,13.62
2023-04-14T21:23:50.812Z,13.74
2023-04-14T21:26:17.694Z,13.70
2023-04-14T21:28:44.328Z,13.71
2023-04-14T21:31:11.325Z,13.76
2023-04-14T21:33:39.614Z,13.76
2023-04-14T21:36:06.979Z,13.84
2023-04-14T21:38:33.736Z,13.90
2023-04-14T21:41:00.722Z,13.83
2023-04-14T21:43:27.484Z,13.95
2023-04-14T21:45:54.293Z,13.79
2023-04-14T21:48:20.915Z,13.93
2023-04-14T21:50:47.487Z,13.93
2023-04-14T21:53:14.150Z,13.78
2023-04-14T21:55:41.089Z,13.86
2023-04-14T21:58:07.684Z,13.94
2023-04-14T22:00:34.888Z,13.89
2023-04-14T22:03:02.281Z,13.87
2023-04-14T22:05:28.892Z,13.86
2023-04-14T22:07:55.489Z,13.87
2023-04-14T22:10:22.080Z,13.85
2023-04-14T22:12:48.959Z,13.96
2023-04-14T22:15:15.572Z,13.95
2023-04-14T22:17:42.449Z,13.83
2023-04-14T22:20:09.779Z,13.80
2023-04-14T22:22:36.623Z,13.85
2023-04-14T22:25:04.435Z,13.88
2023-04-14T22:27:33.332Z,13.87
2023-04-14T22:30:00.320Z,13.83
2023-04-14T22:32:27.163Z,13.78
2023-04-14T22:34:53.927Z,13.75
2023-04-14T22:37:20.524Z,13.78
2023-04-14T22:39:47.079Z,13.81
2023-04-14T22:42:13.681Z,13.80
2023-04-14T22:44:40.213Z,13.75
2023-04-14T22:47:06.792Z,13.66
2023-04-14T22:49:33.377Z,13.75
2023-04-14T22:51:59.912Z,13.66
2023-04-14T22:54:27.445Z,13.78
2023-04-14T22:56:54.012Z,13.86
2023-04-14T22:59:20.594Z,13.74
2023-04-14T23:01:48.242Z,13.72
2023-04-14T23:04:15.118Z,13.74
2023-04-14T23:06:41.713Z,13.69
2023-04-14T23:09:08.286Z,13.63
2023-04-14T23:11:34.849Z,13.70
2023-04-14T23:14:01.419Z,13.71
2023-04-14T23:16:28.122Z,13.61
2023-04-14T23:18:54.786Z,13.76
2023-04-14T23:21:24.843Z,13.72
2023-04-14T23:23:51.662Z,13.59
2023-04-14T23:26:19.619Z,13.60
2023-04-14T23:28:46.688Z,13.63
2023-04-14T23:31:13.603Z,13.72
2023-04-14T23:33:40.581Z,13.61
2023-04-14T23:36:07.678Z,13.55
2023-04-14T23:38:34.308Z,13.61
2023-04-14T23:41:01.404Z,13.61
2023-04-14T23:43:29.019Z,13.56
2023-04-14T23:45:55.912Z,13.34
2023-04-14T23:48:22.488Z,13.45
2023-04-14T23:51:01.728Z,13.40
2023-04-14T23:53:36.038Z,13.25
2023-04-14T23:56:04.168Z,13.27
2023-04-14T23:58:31.376Z,13.34
